sensor_id;sensor_type;location;lat;lon;timestamp;temperature;humidity
8896;DHT22;4484;48.928;10.066;2022-10-31T00:00:43;9.60;99.90
8896;DHT22;4484;48.928;10.066;2022-10-31T00:03:10;9.60;99.90
8896;DHT22;4484;48.928;10.066;2022-10-31T00:05:41;9.50;99.90
8896;DHT22;4484;48.928;10.066;2022-10-31T00:08:08;9.40;99.90
8896;DHT22;4484;48.928;10.066;2022-10-31T00:10:38;9.30;99.90
8896;DHT22;4484;48.928;10.066;2022-10-31T00:13:06;9.30;99.90
8896;DHT22;4484;48.928;10.066;2022-10-31T00:15:34;9.20;99.90
8896;DHT22;4484;48.928;10.066;2022-10-31T00:18:04;9.20;99.90
8896;DHT22;4484;48.928;10.066;2022-10-31T00:20:32;9.10;99.90
8896;DHT22;4484;48.928;10.066;2022-10-31T00:23:00;9.10;99.90
8896;DHT22;4484;48.928;10.066;2022-10-31T00:25:32;9.00;99.90
8896;DHT22;4484;48.928;10.066;2022-10-31T00:27:59;9.00;99.90
8896;DHT22;4484;48.928;10.066;2022-10-31T00:30:26;9.00;99.90
8896;DHT22;4484;48.928;10.066;2022-10-31T00:32:53;8.90;99.90
8896;DHT22;4484;48.928;10.066;2022-10-31T00:35:20;8.80;99.90
8896;DHT22;4484;48.928;10.066;2022-10-31T00:37:47;8.80;99.90
8896;DHT22;4484;48.928;10.066;2022-10-31T00:40:14;8.80;99.90
8896;DHT22;4484;48.928;10.066;2022-10-31T00:42:41;8.80;99.90
8896;DHT22;4484;48.928;10.066;2022-10-31T00:45:11;8.80;99.90
8896;DHT22;4484;48.928;10.066;2022-10-31T00:47:38;8.70;99.90
8896;DHT22;4484;48.928;10.066;2022-10-31T00:50:05;8.70;99.90
8896;DHT22;4484;48.928;10.066;2022-10-31T00:52:32;8.60;99.90
8896;DHT22;4484;48.928;10.066;2022-10-31T00:54:59;8.60;99.90
8896;DHT22;4484;48.928;10.066;2022-10-31T00:57:26;8.50;99.90
8896;DHT22;4484;48.928;10.066;2022-10-31T00:59:53;8.50;99.90
8896;DHT22;4484;48.928;10.066;2022-10-31T01:02:20;8.50;99.90
8896;DHT22;4484;48.928;10.066;2022-10-31T01:04:48;8.50;99.90
8896;DHT22;4484;48.928;10.066;2022-10-31T01:07:15;8.50;99.90
8896;DHT22;4484;48.928;10.066;2022-10-31T01:09:43;8.50;99.90
8896;DHT22;4484;48.928;10.066;2022-10-31T01:12:10;8.50;99.90
8896;DHT22;4484;48.928;10.066;2022-10-31T01:14:43;8.40;99.90
8896;DHT22;4484;48.928;10.066;2022-10-31T01:17:11;8.40;99.90
8896;DHT22;4484;48.928;10.066;2022-10-31T01:19:38;8.40;99.90
8896;DHT22;4484;48.928;10.066;2022-10-31T01:22:05;8.30;99.90
8896;DHT22;4484;48.928;10.066;2022-10-31T01:24:32;8.30;99.90
8896;DHT22;4484;48.928;10.066;2022-10-31T01:27:01;8.30;99.90
8896;DHT22;4484;48.928;10.066;2022-10-31T01:29:31;8.30;99.90
8896;DHT22;4484;48.928;10.066;2022-10-31T01:31:58;8.30;99.90
8896;DHT22;4484;48.928;10.066;2022-10-31T01:34:25;8.20;99.90
8896;DHT22;4484;48.928;10.066;2022-10-31T01:36:52;8.20;99.90
8896;DHT22;4484;48.928;10.066;2022-10-31T01:39:21;8.20;99.90
8896;DHT22;4484;48.928;10.066;2022-10-31T01:41:50;8.20;99.90
8896;DHT22;4484;48.928;10.066;2022-10-31T01:51:56;8.20;99.90
8896;DHT22;4484;48.928;10.066;2022-10-31T01:54:29;8.10;99.90
8896;DHT22;4484;48.928;10.066;2022-10-31T01:56:59;8.10;99.90
8896;DHT22;4484;48.928;10.066;2022-10-31T01:59:29;8.10;99.90
8896;DHT22;4484;48.928;10.066;2022-10-31T02:01:57;8.00;99.90
8896;DHT22;4484;48.928;10.066;2022-10-31T02:04:26;8.00;99.90
8896;DHT22;4484;48.928;10.066;2022-10-31T02:07:02;8.00;99.90
8896;DHT22;4484;48.928;10.066;2022-10-31T02:09:31;8.00;99.90
8896;DHT22;4484;48.928;10.066;2022-10-31T02:12:01;8.00;99.90
8896;DHT22;4484;48.928;10.066;2022-10-31T02:14:30;8.00;99.90
8896;DHT22;4484;48.928;10.066;2022-10-31T02:16:58;8.00;99.90
8896;DHT22;4484;48.928;10.066;2022-10-31T02:19:37;8.00;99.90
8896;DHT22;4484;48.928;10.066;2022-10-31T02:33:26;8.00;99.90
8896;DHT22;4484;48.928;10.066;2022-10-31T02:36:15;7.90;99.90
8896;DHT22;4484;48.928;10.066;2022-10-31T02:39:21;8.00;99.90
8896;DHT22;4484;48.928;10.066;2022-10-31T02:44:36;8.00;99.90
8896;DHT22;4484;48.928;10.066;2022-10-31T02:47:11;8.00;99.90
8896;DHT22;4484;48.928;10.066;2022-10-31T02:52:23;7.90;99.90
8896;DHT22;4484;48.928;10.066;2022-10-31T02:54:52;7.90;99.90
8896;DHT22;4484;48.928;10.066;2022-10-31T02:57:27;7.90;99.90
8896;DHT22;4484;48.928;10.066;2022-10-31T03:00:00;7.80;99.90
8896;DHT22;4484;48.928;10.066;2022-10-31T03:02:45;7.80;99.90
8896;DHT22;4484;48.928;10.066;2022-10-31T03:10:58;7.80;99.90
8896;DHT22;4484;48.928;10.066;2022-10-31T03:13:39;7.90;99.90
8896;DHT22;4484;48.928;10.066;2022-10-31T03:16:15;7.80;99.90
8896;DHT22;4484;48.928;10.066;2022-10-31T03:18:53;7.80;99.90
8896;DHT22;4484;48.928;10.066;2022-10-31T03:21:42;7.80;99.90
8896;DHT22;4484;48.928;10.066;2022-10-31T03:24:12;7.80;99.90
8896;DHT22;4484;48.928;10.066;2022-10-31T03:26:46;7.80;99.90
8896;DHT22;4484;48.928;10.066;2022-10-31T03:29:16;7.80;99.90
8896;DHT22;4484;48.928;10.066;2022-10-31T03:34:21;7.80;99.90
8896;DHT22;4484;48.928;10.066;2022-10-31T03:36:50;7.80;99.90
8896;DHT22;4484;48.928;10.066;2022-10-31T03:39:20;7.80;99.90
8896;DHT22;4484;48.928;10.066;2022-10-31T03:42:09;7.80;99.90
8896;DHT22;4484;48.928;10.066;2022-10-31T03:44:39;7.70;99.90
8896;DHT22;4484;48.928;10.066;2022-10-31T03:47:07;7.80;99.90
8896;DHT22;4484;48.928;10.066;2022-10-31T03:49:35;7.80;99.90
8896;DHT22;4484;48.928;10.066;2022-10-31T03:52:07;7.70;99.90
8896;DHT22;4484;48.928;10.066;2022-10-31T03:54:43;7.70;99.90
8896;DHT22;4484;48.928;10.066;2022-10-31T03:57:27;7.70;99.90
8896;DHT22;4484;48.928;10.066;2022-10-31T04:00:05;7.70;99.90
8896;DHT22;4484;48.928;10.066;2022-10-31T04:02:49;7.70;99.90
8896;DHT22;4484;48.928;10.066;2022-10-31T04:05:19;7.70;99.90
8896;DHT22;4484;48.928;10.066;2022-10-31T04:07:48;7.60;99.90
8896;DHT22;4484;48.928;10.066;2022-10-31T04:10:17;7.60;99.90
8896;DHT22;4484;48.928;10.066;2022-10-31T04:12:50;7.70;99.90
8896;DHT22;4484;48.928;10.066;2022-10-31T04:15:26;7.60;99.90
8896;DHT22;4484;48.928;10.066;2022-10-31T04:17:55;7.60;99.90
8896;DHT22;4484;48.928;10.066;2022-10-31T04:20:39;7.70;99.90
8896;DHT22;4484;48.928;10.066;2022-10-31T04:23:20;7.60;99.90
8896;DHT22;4484;48.928;10.066;2022-10-31T04:25:48;7.70;99.90
8896;DHT22;4484;48.928;10.066;2022-10-31T04:28:16;7.70;99.90
8896;DHT22;4484;48.928;10.066;2022-10-31T04:30:48;7.70;99.90
8896;DHT22;4484;48.928;10.066;2022-10-31T04:33:16;7.60;99.90
8896;DHT22;4484;48.928;10.066;2022-10-31T04:35:44;7.60;99.90
8896;DHT22;4484;48.928;10.066;2022-10-31T04:38:11;7.60;99.90
8896;DHT22;4484;48.928;10.066;2022-10-31T04:40:39;7.50;99.90
8896;DHT22;4484;48.928;10.066;2022-10-31T04:43:29;7.60;99.90
8896;DHT22;4484;48.928;10.066;2022-10-31T04:45:58;7.60;99.90
8896;DHT22;4484;48.928;10.066;2022-10-31T04:48:25;7.50;99.90
8896;DHT22;4484;48.928;10.066;2022-10-31T04:50:52;7.50;99.90
8896;DHT22;4484;48.928;10.066;2022-10-31T04:53:19;7.50;99.90
8896;DHT22;4484;48.928;10.066;2022-10-31T04:56:09;7.50;99.90
8896;DHT22;4484;48.928;10.066;2022-10-31T04:58:40;7.50;99.90
8896;DHT22;4484;48.928;10.066;2022-10-31T05:01:09;7.50;99.90
8896;DHT22;4484;48.928;10.066;2022-10-31T05:03:36;7.60;99.90
8896;DHT22;4484;48.928;10.066;2022-10-31T05:06:06;7.70;99.90
8896;DHT22;4484;48.928;10.066;2022-10-31T05:08:35;7.70;99.90
8896;DHT22;4484;48.928;10.066;2022-10-31T05:11:05;7.70;99.90
8896;DHT22;4484;48.928;10.066;2022-10-31T05:13:32;7.70;99.90
8896;DHT22;4484;48.928;10.066;2022-10-31T05:16:12;7.60;99.90
8896;DHT22;4484;48.928;10.066;2022-10-31T05:19:08;7.60;99.90
8896;DHT22;4484;48.928;10.066;2022-10-31T05:21:53;7.60;99.90
8896;DHT22;4484;48.928;10.066;2022-10-31T05:24:23;7.60;99.90
8896;DHT22;4484;48.928;10.066;2022-10-31T05:26:51;7.60;99.90
8896;DHT22;4484;48.928;10.066;2022-10-31T05:29:18;7.60;99.90
8896;DHT22;4484;48.928;10.066;2022-10-31T05:31:45;7.70;99.90
8896;DHT22;4484;48.928;10.066;2022-10-31T05:34:32;7.70;99.90
8896;DHT22;4484;48.928;10.066;2022-10-31T05:37:24;7.80;99.90
8896;DHT22;4484;48.928;10.066;2022-10-31T05:39:51;7.80;99.90
8896;DHT22;4484;48.928;10.066;2022-10-31T05:42:19;7.80;99.90
8896;DHT22;4484;48.928;10.066;2022-10-31T05:44:47;7.80;99.90
8896;DHT22;4484;48.928;10.066;2022-10-31T05:47:21;7.90;99.90
8896;DHT22;4484;48.928;10.066;2022-10-31T05:50:11;7.90;99.90
8896;DHT22;4484;48.928;10.066;2022-10-31T05:52:59;7.90;99.90
8896;DHT22;4484;48.928;10.066;2022-10-31T05:55:32;7.90;99.90
8896;DHT22;4484;48.928;10.066;2022-10-31T05:58:12;7.90;99.90
8896;DHT22;4484;48.928;10.066;2022-10-31T06:00:45;8.00;99.90
8896;DHT22;4484;48.928;10.066;2022-10-31T06:03:12;8.00;99.90
8896;DHT22;4484;48.928;10.066;2022-10-31T06:05:45;8.00;99.90
8896;DHT22;4484;48.928;10.066;2022-10-31T06:08:20;8.00;99.90
8896;DHT22;4484;48.928;10.066;2022-10-31T06:10:48;8.00;99.90
8896;DHT22;4484;48.928;10.066;2022-10-31T06:13:20;8.00;99.90
8896;DHT22;4484;48.928;10.066;2022-10-31T06:15:55;8.00;99.90
8896;DHT22;4484;48.928;10.066;2022-10-31T06:18:26;8.00;99.90
8896;DHT22;4484;48.928;10.066;2022-10-31T06:20:54;8.00;99.90
8896;DHT22;4484;48.928;10.066;2022-10-31T06:23:22;8.00;99.90
8896;DHT22;4484;48.928;10.066;2022-10-31T06:25:54;8.00;99.90
8896;DHT22;4484;48.928;10.066;2022-10-31T06:28:22;8.10;99.90
8896;DHT22;4484;48.928;10.066;2022-10-31T06:30:52;8.20;99.90
8896;DHT22;4484;48.928;10.066;2022-10-31T06:33:20;8.20;99.90
8896;DHT22;4484;48.928;10.066;2022-10-31T06:35:54;8.20;99.90
8896;DHT22;4484;48.928;10.066;2022-10-31T06:38:22;8.30;99.90
8896;DHT22;4484;48.928;10.066;2022-10-31T06:40:49;8.30;99.90
8896;DHT22;4484;48.928;10.066;2022-10-31T06:43:24;8.30;99.90
8896;DHT22;4484;48.928;10.066;2022-10-31T06:46:16;8.40;99.90
8896;DHT22;4484;48.928;10.066;2022-10-31T06:49:07;8.40;99.90
8896;DHT22;4484;48.928;10.066;2022-10-31T06:51:41;8.50;99.90
8896;DHT22;4484;48.928;10.066;2022-10-31T06:54:09;8.60;99.90
8896;DHT22;4484;48.928;10.066;2022-10-31T06:56:36;8.60;99.90
8896;DHT22;4484;48.928;10.066;2022-10-31T06:59:03;8.70;99.90
8896;DHT22;4484;48.928;10.066;2022-10-31T07:02:02;8.80;99.90
8896;DHT22;4484;48.928;10.066;2022-10-31T07:04:29;8.90;99.90
8896;DHT22;4484;48.928;10.066;2022-10-31T07:06:56;8.90;99.90
8896;DHT22;4484;48.928;10.066;2022-10-31T07:09:23;9.00;99.90
8896;DHT22;4484;48.928;10.066;2022-10-31T07:11:52;9.10;99.90
8896;DHT22;4484;48.928;10.066;2022-10-31T07:14:20;9.20;99.90
8896;DHT22;4484;48.928;10.066;2022-10-31T07:16:50;9.30;99.90
8896;DHT22;4484;48.928;10.066;2022-10-31T07:19:23;9.30;99.90
8896;DHT22;4484;48.928;10.066;2022-10-31T07:21:50;9.40;99.90
8896;DHT22;4484;48.928;10.066;2022-10-31T07:24:17;9.50;99.90
8896;DHT22;4484;48.928;10.066;2022-10-31T07:27:04;9.60;99.90
8896;DHT22;4484;48.928;10.066;2022-10-31T07:29:31;9.80;99.90
8896;DHT22;4484;48.928;10.066;2022-10-31T07:31:58;10.00;99.90
8896;DHT22;4484;48.928;10.066;2022-10-31T07:34:29;10.10;99.90
8896;DHT22;4484;48.928;10.066;2022-10-31T07:37:18;10.30;99.90
8896;DHT22;4484;48.928;10.066;2022-10-31T07:39:45;10.50;99.90
8896;DHT22;4484;48.928;10.066;2022-10-31T07:42:12;10.70;99.90
8896;DHT22;4484;48.928;10.066;2022-10-31T07:44:43;11.00;99.90
8896;DHT22;4484;48.928;10.066;2022-10-31T07:47:30;11.50;99.90
8896;DHT22;4484;48.928;10.066;2022-10-31T07:50:29;12.20;99.90
8896;DHT22;4484;48.928;10.066;2022-10-31T07:53:31;12.80;99.90
8896;DHT22;4484;48.928;10.066;2022-10-31T07:56:08;13.50;99.90
8896;DHT22;4484;48.928;10.066;2022-10-31T07:58:35;14.00;99.90
8896;DHT22;4484;48.928;10.066;2022-10-31T08:01:03;14.40;99.90
8896;DHT22;4484;48.928;10.066;2022-10-31T08:03:38;14.80;99.90
8896;DHT22;4484;48.928;10.066;2022-10-31T08:06:24;15.20;99.90
8896;DHT22;4484;48.928;10.066;2022-10-31T08:09:09;15.60;99.90
8896;DHT22;4484;48.928;10.066;2022-10-31T08:11:36;15.90;99.90
8896;DHT22;4484;48.928;10.066;2022-10-31T08:14:03;16.10;99.90
8896;DHT22;4484;48.928;10.066;2022-10-31T08:16:30;16.20;99.90
8896;DHT22;4484;48.928;10.066;2022-10-31T08:19:00;16.30;99.90
8896;DHT22;4484;48.928;10.066;2022-10-31T08:21:29;16.60;99.90
8896;DHT22;4484;48.928;10.066;2022-10-31T08:23:57;16.80;99.90
8896;DHT22;4484;48.928;10.066;2022-10-31T08:26:24;17.00;99.90
8896;DHT22;4484;48.928;10.066;2022-10-31T08:28:53;17.20;99.90
8896;DHT22;4484;48.928;10.066;2022-10-31T08:31:23;17.40;99.90
8896;DHT22;4484;48.928;10.066;2022-10-31T08:34:21;17.70;99.90
8896;DHT22;4484;48.928;10.066;2022-10-31T08:37:07;17.90;99.90
8896;DHT22;4484;48.928;10.066;2022-10-31T08:39:40;18.10;99.90
8896;DHT22;4484;48.928;10.066;2022-10-31T08:42:07;18.20;99.90
8896;DHT22;4484;48.928;10.066;2022-10-31T08:44:34;18.30;99.90
8896;DHT22;4484;48.928;10.066;2022-10-31T08:47:03;18.50;99.90
8896;DHT22;4484;48.928;10.066;2022-10-31T08:49:32;18.50;99.90
8896;DHT22;4484;48.928;10.066;2022-10-31T08:51:59;18.50;99.90
8896;DHT22;4484;48.928;10.066;2022-10-31T08:54:31;18.50;99.90
8896;DHT22;4484;48.928;10.066;2022-10-31T08:57:17;18.40;99.90
8896;DHT22;4484;48.928;10.066;2022-10-31T08:59:45;18.40;99.90
8896;DHT22;4484;48.928;10.066;2022-10-31T09:02:38;18.50;99.90
8896;DHT22;4484;48.928;10.066;2022-10-31T09:05:06;18.50;99.90
8896;DHT22;4484;48.928;10.066;2022-10-31T09:07:33;18.50;99.90
8896;DHT22;4484;48.928;10.066;2022-10-31T09:10:00;18.50;99.90
8896;DHT22;4484;48.928;10.066;2022-10-31T09:12:31;18.60;99.90
8896;DHT22;4484;48.928;10.066;2022-10-31T09:15:16;18.60;99.90
8896;DHT22;4484;48.928;10.066;2022-10-31T09:17:48;18.60;99.90
8896;DHT22;4484;48.928;10.066;2022-10-31T09:20:22;18.70;99.90
8896;DHT22;4484;48.928;10.066;2022-10-31T09:23:02;18.80;99.90
8896;DHT22;4484;48.928;10.066;2022-10-31T09:25:30;18.80;99.90
8896;DHT22;4484;48.928;10.066;2022-10-31T09:28:19;18.90;99.90
8896;DHT22;4484;48.928;10.066;2022-10-31T09:30:47;18.90;99.90
8896;DHT22;4484;48.928;10.066;2022-10-31T09:33:21;19.00;99.90
8896;DHT22;4484;48.928;10.066;2022-10-31T09:36:03;19.10;99.90
8896;DHT22;4484;48.928;10.066;2022-10-31T09:38:31;19.20;99.90
8896;DHT22;4484;48.928;10.066;2022-10-31T09:43:48;19.30;99.90
8896;DHT22;4484;48.928;10.066;2022-10-31T09:51:57;19.50;99.90
8896;DHT22;4484;48.928;10.066;2022-10-31T09:54:45;19.60;99.90
8896;DHT22;4484;48.928;10.066;2022-10-31T09:57:15;19.70;99.90
8896;DHT22;4484;48.928;10.066;2022-10-31T09:59:47;19.70;99.90
8896;DHT22;4484;48.928;10.066;2022-10-31T10:02:38;20.00;99.90
8896;DHT22;4484;48.928;10.066;2022-10-31T10:05:15;20.30;99.90
8896;DHT22;4484;48.928;10.066;2022-10-31T10:08:09;20.60;99.90
8896;DHT22;4484;48.928;10.066;2022-10-31T10:20:04;22.40;99.90
8896;DHT22;4484;48.928;10.066;2022-10-31T10:25:39;23.00;99.90
8896;DHT22;4484;48.928;10.066;2022-10-31T10:28:26;23.20;99.90
8896;DHT22;4484;48.928;10.066;2022-10-31T10:31:02;23.10;99.90
8896;DHT22;4484;48.928;10.066;2022-10-31T10:33:35;23.30;99.90
8896;DHT22;4484;48.928;10.066;2022-10-31T10:36:10;23.60;99.90
8896;DHT22;4484;48.928;10.066;2022-10-31T10:41:26;24.20;99.90
8896;DHT22;4484;48.928;10.066;2022-10-31T10:43:59;24.20;99.90
8896;DHT22;4484;48.928;10.066;2022-10-31T10:49:32;24.30;99.90
8896;DHT22;4484;48.928;10.066;2022-10-31T10:52:38;24.50;99.90
8896;DHT22;4484;48.928;10.066;2022-10-31T10:55:36;24.50;99.90
8896;DHT22;4484;48.928;10.066;2022-10-31T10:58:10;24.40;99.90
8896;DHT22;4484;48.928;10.066;2022-10-31T11:00:46;24.70;99.90
8896;DHT22;4484;48.928;10.066;2022-10-31T11:03:15;24.90;99.90
8896;DHT22;4484;48.928;10.066;2022-10-31T11:08:36;25.10;99.90
8896;DHT22;4484;48.928;10.066;2022-10-31T11:11:08;25.20;99.90
8896;DHT22;4484;48.928;10.066;2022-10-31T11:13:37;25.20;99.90
8896;DHT22;4484;48.928;10.066;2022-10-31T11:16:27;25.30;99.90
8896;DHT22;4484;48.928;10.066;2022-10-31T11:21:44;25.60;99.90
8896;DHT22;4484;48.928;10.066;2022-10-31T11:24:19;25.70;99.90
8896;DHT22;4484;48.928;10.066;2022-10-31T11:26:47;25.60;99.90
8896;DHT22;4484;48.928;10.066;2022-10-31T11:31:44;25.50;99.90
8896;DHT22;4484;48.928;10.066;2022-10-31T11:34:29;25.40;99.90
8896;DHT22;4484;48.928;10.066;2022-10-31T11:37:11;25.30;99.90
8896;DHT22;4484;48.928;10.066;2022-10-31T11:39:41;25.20;99.90
8896;DHT22;4484;48.928;10.066;2022-10-31T11:42:10;25.00;99.90
8896;DHT22;4484;48.928;10.066;2022-10-31T11:44:41;24.80;99.90
8896;DHT22;4484;48.928;10.066;2022-10-31T11:47:15;24.70;99.90
8896;DHT22;4484;48.928;10.066;2022-10-31T11:49:45;24.60;99.90
8896;DHT22;4484;48.928;10.066;2022-10-31T11:54:58;24.40;99.90
8896;DHT22;4484;48.928;10.066;2022-10-31T11:59:58;24.20;99.90
8896;DHT22;4484;48.928;10.066;2022-10-31T12:02:26;24.10;99.90
8896;DHT22;4484;48.928;10.066;2022-10-31T12:05:07;24.00;99.90
8896;DHT22;4484;48.928;10.066;2022-10-31T12:07:35;23.90;99.90
8896;DHT22;4484;48.928;10.066;2022-10-31T12:10:10;23.80;99.90
8896;DHT22;4484;48.928;10.066;2022-10-31T12:13:27;23.60;99.90
8896;DHT22;4484;48.928;10.066;2022-10-31T12:16:18;23.40;99.90
8896;DHT22;4484;48.928;10.066;2022-10-31T12:19:05;23.10;99.90
8896;DHT22;4484;48.928;10.066;2022-10-31T12:21:47;22.90;99.90
8896;DHT22;4484;48.928;10.066;2022-10-31T12:41:12;23.10;99.90
8896;DHT22;4484;48.928;10.066;2022-10-31T12:44:47;23.20;99.90
8896;DHT22;4484;48.928;10.066;2022-10-31T12:57:50;23.50;99.90
8896;DHT22;4484;48.928;10.066;2022-10-31T13:00:19;23.70;99.90
8896;DHT22;4484;48.928;10.066;2022-10-31T13:03:17;24.00;99.90
8896;DHT22;4484;48.928;10.066;2022-10-31T13:05:48;24.20;99.90
8896;DHT22;4484;48.928;10.066;2022-10-31T13:10:48;24.90;99.90
8896;DHT22;4484;48.928;10.066;2022-10-31T13:16:25;25.20;99.90
8896;DHT22;4484;48.928;10.066;2022-10-31T13:19:21;25.10;99.90
8896;DHT22;4484;48.928;10.066;2022-10-31T13:22:20;25.00;99.90
8896;DHT22;4484;48.928;10.066;2022-10-31T13:27:56;24.10;99.90
8896;DHT22;4484;48.928;10.066;2022-10-31T13:30:26;23.80;99.90
8896;DHT22;4484;48.928;10.066;2022-10-31T13:33:56;23.40;99.90
8896;DHT22;4484;48.928;10.066;2022-10-31T13:41:56;22.10;99.90
8896;DHT22;4484;48.928;10.066;2022-10-31T13:44:27;21.70;99.90
8896;DHT22;4484;48.928;10.066;2022-10-31T13:47:00;21.50;99.90
8896;DHT22;4484;48.928;10.066;2022-10-31T13:54:45;20.80;99.90
8896;DHT22;4484;48.928;10.066;2022-10-31T13:57:33;20.70;99.90
8896;DHT22;4484;48.928;10.066;2022-10-31T14:00:25;20.50;99.90
8896;DHT22;4484;48.928;10.066;2022-10-31T14:02:57;20.30;99.90
8896;DHT22;4484;48.928;10.066;2022-10-31T14:05:32;20.20;99.90
8896;DHT22;4484;48.928;10.066;2022-10-31T14:08:04;20.00;99.90
8896;DHT22;4484;48.928;10.066;2022-10-31T14:10:38;19.90;99.90
8896;DHT22;4484;48.928;10.066;2022-10-31T14:13:08;19.70;99.90
8896;DHT22;4484;48.928;10.066;2022-10-31T14:15:43;19.60;99.90
8896;DHT22;4484;48.928;10.066;2022-10-31T14:18:30;19.40;99.90
8896;DHT22;4484;48.928;10.066;2022-10-31T14:20:58;19.20;99.90
8896;DHT22;4484;48.928;10.066;2022-10-31T14:31:38;18.80;99.90
8896;DHT22;4484;48.928;10.066;2022-10-31T14:39:37;18.60;99.90
8896;DHT22;4484;48.928;10.066;2022-10-31T14:50:53;18.90;99.90
8896;DHT22;4484;48.928;10.066;2022-10-31T14:53:22;19.00;99.90
8896;DHT22;4484;48.928;10.066;2022-10-31T14:55:53;19.10;99.90
8896;DHT22;4484;48.928;10.066;2022-10-31T14:58:25;19.20;99.90
8896;DHT22;4484;48.928;10.066;2022-10-31T15:00:56;19.10;99.90
8896;DHT22;4484;48.928;10.066;2022-10-31T15:03:30;19.00;99.90
8896;DHT22;4484;48.928;10.066;2022-10-31T15:06:14;19.00;99.90
8896;DHT22;4484;48.928;10.066;2022-10-31T15:08:53;19.00;99.90
8896;DHT22;4484;48.928;10.066;2022-10-31T15:11:22;18.90;99.90
8896;DHT22;4484;48.928;10.066;2022-10-31T15:13:58;18.70;99.90
8896;DHT22;4484;48.928;10.066;2022-10-31T15:16:35;18.60;99.90
8896;DHT22;4484;48.928;10.066;2022-10-31T15:19:11;18.40;99.90
8896;DHT22;4484;48.928;10.066;2022-10-31T15:21:45;18.30;99.90
8896;DHT22;4484;48.928;10.066;2022-10-31T15:24:15;18.10;99.90
8896;DHT22;4484;48.928;10.066;2022-10-31T15:26:47;18.00;99.90
8896;DHT22;4484;48.928;10.066;2022-10-31T15:29:17;17.90;99.90
8896;DHT22;4484;48.928;10.066;2022-10-31T15:31:58;17.80;99.90
8896;DHT22;4484;48.928;10.066;2022-10-31T15:34:36;17.70;99.90
8896;DHT22;4484;48.928;10.066;2022-10-31T15:37:20;17.60;99.90
8896;DHT22;4484;48.928;10.066;2022-10-31T15:39:49;17.50;99.90
8896;DHT22;4484;48.928;10.066;2022-10-31T15:42:38;17.30;99.90
8896;DHT22;4484;48.928;10.066;2022-10-31T15:47:39;17.00;99.90
8896;DHT22;4484;48.928;10.066;2022-10-31T15:50:38;16.90;99.90
8896;DHT22;4484;48.928;10.066;2022-10-31T15:53:16;16.80;99.90
8896;DHT22;4484;48.928;10.066;2022-10-31T15:55:50;16.70;99.90
8896;DHT22;4484;48.928;10.066;2022-10-31T15:58:19;16.60;99.90
8896;DHT22;4484;48.928;10.066;2022-10-31T16:04:22;16.30;99.90
8896;DHT22;4484;48.928;10.066;2022-10-31T16:07:14;16.10;99.90
8896;DHT22;4484;48.928;10.066;2022-10-31T16:10:00;16.00;99.90
8896;DHT22;4484;48.928;10.066;2022-10-31T16:12:36;15.90;99.90
8896;DHT22;4484;48.928;10.066;2022-10-31T16:15:05;15.80;99.90
8896;DHT22;4484;48.928;10.066;2022-10-31T16:17:46;15.70;99.90
8896;DHT22;4484;48.928;10.066;2022-10-31T16:20:36;15.60;99.90
8896;DHT22;4484;48.928;10.066;2022-10-31T16:23:05;15.40;99.90
8896;DHT22;4484;48.928;10.066;2022-10-31T16:25:37;15.30;99.90
8896;DHT22;4484;48.928;10.066;2022-10-31T16:28:21;15.20;99.90
8896;DHT22;4484;48.928;10.066;2022-10-31T16:30:56;15.10;99.90
8896;DHT22;4484;48.928;10.066;2022-10-31T16:33:35;15.00;99.90
8896;DHT22;4484;48.928;10.066;2022-10-31T16:39:02;14.90;99.90
8896;DHT22;4484;48.928;10.066;2022-10-31T16:41:29;14.80;99.90
8896;DHT22;4484;48.928;10.066;2022-10-31T16:43:57;14.70;99.90
8896;DHT22;4484;48.928;10.066;2022-10-31T16:46:26;14.70;99.90
8896;DHT22;4484;48.928;10.066;2022-10-31T16:48:54;14.60;99.90
8896;DHT22;4484;48.928;10.066;2022-10-31T16:51:22;14.60;99.90
8896;DHT22;4484;48.928;10.066;2022-10-31T16:53:52;14.50;99.90
8896;DHT22;4484;48.928;10.066;2022-10-31T16:56:27;14.40;99.90
8896;DHT22;4484;48.928;10.066;2022-10-31T16:58:55;14.30;99.90
8896;DHT22;4484;48.928;10.066;2022-10-31T17:01:23;14.20;99.90
8896;DHT22;4484;48.928;10.066;2022-10-31T17:03:50;14.10;99.90
8896;DHT22;4484;48.928;10.066;2022-10-31T17:06:18;14.00;99.90
8896;DHT22;4484;48.928;10.066;2022-10-31T17:08:45;14.00;99.90
8896;DHT22;4484;48.928;10.066;2022-10-31T17:11:22;13.90;99.90
8896;DHT22;4484;48.928;10.066;2022-10-31T17:13:50;13.80;99.90
8896;DHT22;4484;48.928;10.066;2022-10-31T17:16:17;13.70;99.90
8896;DHT22;4484;48.928;10.066;2022-10-31T17:18:43;13.60;99.90
8896;DHT22;4484;48.928;10.066;2022-10-31T17:21:22;13.50;99.90
8896;DHT22;4484;48.928;10.066;2022-10-31T17:23:50;13.40;99.90
8896;DHT22;4484;48.928;10.066;2022-10-31T17:26:18;13.30;99.90
8896;DHT22;4484;48.928;10.066;2022-10-31T17:28:45;13.20;99.90
8896;DHT22;4484;48.928;10.066;2022-10-31T17:31:21;13.00;99.90
8896;DHT22;4484;48.928;10.066;2022-10-31T17:33:49;12.90;99.90
8896;DHT22;4484;48.928;10.066;2022-10-31T17:36:16;12.80;99.90
8896;DHT22;4484;48.928;10.066;2022-10-31T17:38:43;12.80;99.90
8896;DHT22;4484;48.928;10.066;2022-10-31T17:41:10;12.80;99.90
8896;DHT22;4484;48.928;10.066;2022-10-31T17:43:37;12.70;99.90
8896;DHT22;4484;48.928;10.066;2022-10-31T17:46:05;12.60;99.90
8896;DHT22;4484;48.928;10.066;2022-10-31T17:48:33;12.60;99.90
8896;DHT22;4484;48.928;10.066;2022-10-31T17:51:05;12.50;99.90
8896;DHT22;4484;48.928;10.066;2022-10-31T17:53:33;12.40;99.90
8896;DHT22;4484;48.928;10.066;2022-10-31T17:56:02;12.40;99.90
8896;DHT22;4484;48.928;10.066;2022-10-31T17:58:30;12.40;99.90
8896;DHT22;4484;48.928;10.066;2022-10-31T18:00:57;12.40;99.90
8896;DHT22;4484;48.928;10.066;2022-10-31T18:03:25;12.30;99.90
8896;DHT22;4484;48.928;10.066;2022-10-31T18:05:54;12.30;99.90
8896;DHT22;4484;48.928;10.066;2022-10-31T18:08:26;12.20;99.90
8896;DHT22;4484;48.928;10.066;2022-10-31T18:10:53;12.20;99.90
8896;DHT22;4484;48.928;10.066;2022-10-31T18:13:21;12.10;99.90
8896;DHT22;4484;48.928;10.066;2022-10-31T18:15:48;12.00;99.90
8896;DHT22;4484;48.928;10.066;2022-10-31T18:18:15;12.00;99.90
8896;DHT22;4484;48.928;10.066;2022-10-31T18:20:42;12.00;99.90
8896;DHT22;4484;48.928;10.066;2022-10-31T18:23:10;11.90;99.90
8896;DHT22;4484;48.928;10.066;2022-10-31T18:25:37;11.80;99.90
8896;DHT22;4484;48.928;10.066;2022-10-31T18:28:05;11.80;99.90
8896;DHT22;4484;48.928;10.066;2022-10-31T18:30:32;11.70;99.90
8896;DHT22;4484;48.928;10.066;2022-10-31T18:32:59;11.60;99.90
8896;DHT22;4484;48.928;10.066;2022-10-31T18:35:26;11.60;99.90
8896;DHT22;4484;48.928;10.066;2022-10-31T18:37:53;11.50;99.90
8896;DHT22;4484;48.928;10.066;2022-10-31T18:40:22;11.50;99.90
8896;DHT22;4484;48.928;10.066;2022-10-31T18:42:49;11.40;99.90
8896;DHT22;4484;48.928;10.066;2022-10-31T18:45:16;11.40;99.90
8896;DHT22;4484;48.928;10.066;2022-10-31T18:48:03;11.30;99.90
8896;DHT22;4484;48.928;10.066;2022-10-31T18:50:30;11.30;99.90
8896;DHT22;4484;48.928;10.066;2022-10-31T18:52:56;11.20;99.90
8896;DHT22;4484;48.928;10.066;2022-10-31T18:55:23;11.10;99.90
8896;DHT22;4484;48.928;10.066;2022-10-31T18:57:50;11.00;99.90
8896;DHT22;4484;48.928;10.066;2022-10-31T19:00:17;10.90;99.90
8896;DHT22;4484;48.928;10.066;2022-10-31T19:02:44;10.90;99.90